Mamolino 2068 — 9HB3040 — position and weather

sailwx.info

Track history (hours):
 
Tides and Currents Weather Stations Pressure Air Temp Water Temp Dewpoint Dewpoint Depression Visibility Wind Speed Wind Dir Waves Ship Positions

Mamolino 2068

Last reported at 2018-May-12 10:30 UTC. Time now 2018-Jun-25 02:09 UTC.
Position S 05°07' E 011°22'.
Warning: this ship's position is 43 days out of date.

Length 20 m; draft 1 m.

Type: Passenger vessel. MMSI: 229233000.

Date/timePositionNaut miles runAvg speedWind from/ knotsBaromVisibWave heightAir tempDewpointWater temp
2018-May-12 10:30S 05°07' E 011°22'611.8
2018-May-12 09:59S 05°13' E 011°24'611.3
2018-May-12 09:29S 05°07' E 011°23'  
2018-May-09 22:15S 05°01' E 011°19'417.1
2018-May-09 22:00S 05°05' E 011°20'917.0
2018-May-09 21:29S 05°14' E 011°22'2 4.0
2018-May-09 21:00S 05°15' E 011°23'816.3
2018-May-09 20:30S 05°07' E 011°21'816.5
2018-May-09 20:00S 04°59' E 011°19'  
Track history (hours):
 
Tides and Currents Weather Stations Pressure Air Temp Water Temp Dewpoint Dewpoint Depression Visibility Wind Speed Wind Dir Waves Ship Positions

Mamolino 2068

Last reported at 2018-May-12 10:30 UTC. Time now 2018-Jun-25 02:09 UTC.
Position S 05°07' E 011°22'.
Warning: this ship's position is 43 days out of date.

Length 20 m; draft 1 m.

Type: Passenger vessel. MMSI: 229233000.

Date/timePositionNaut miles runAvg speedWind from/ knotsBaromVisibWave heightAir tempDewpointWater temp
2018-May-12 10:30S 05°07' E 011°22'611.8
2018-May-12 09:59S 05°13' E 011°24'611.3
2018-May-12 09:29S 05°07' E 011°23'  
2018-May-09 22:15S 05°01' E 011°19'417.1
2018-May-09 22:00S 05°05' E 011°20'917.0
2018-May-09 21:29S 05°14' E 011°22'2 4.0
2018-May-09 21:00S 05°15' E 011°23'816.3
2018-May-09 20:30S 05°07' E 011°21'816.5
2018-May-09 20:00S 04°59' E 011°19'  

Dump ship's entire track history